createdAt,value
2023-05-09T00:03:08.997Z,39.53
2023-05-09T00:08:30.795Z,24.10
2023-05-09T00:13:53.227Z,23.42
2023-05-09T00:19:14.899Z,23.27
2023-05-09T00:24:36.612Z,22.05
2023-05-09T00:29:58.621Z,26.08
2023-05-09T00:35:20.441Z,21.73
2023-05-09T00:40:42.167Z,23.05
2023-05-09T00:46:04.440Z,24.27
2023-05-09T00:51:28.442Z,27.90
2023-05-09T00:56:51.271Z,26.60
2023-05-09T01:02:13.224Z,29.35
2023-05-09T01:07:57.037Z,27.45
2023-05-09T01:13:35.182Z,28.38
2023-05-09T01:19:25.854Z,29.70
2023-05-09T01:25:24.851Z,29.83
2023-05-09T01:30:47.476Z,28.95
2023-05-09T01:36:13.304Z,29.88
2023-05-09T01:41:37.461Z,29.05
2023-05-09T01:47:01.220Z,32.22
2023-05-09T01:52:25.561Z,27.88
2023-05-09T01:57:48.880Z,29.73
2023-05-09T02:03:11.623Z,27.77
2023-05-09T02:08:33.522Z,33.55
2023-05-09T02:13:55.334Z,30.88
2023-05-09T02:19:17.486Z,32.85
2023-05-09T02:24:40.484Z,31.02
2023-05-09T02:30:07.386Z,28.58
2023-05-09T02:35:29.659Z,31.00
2023-05-09T02:40:52.610Z,28.02
2023-05-09T02:46:14.533Z,30.20
2023-05-09T02:51:36.342Z,31.67
2023-05-09T02:56:59.225Z,29.02
2023-05-09T03:02:21.078Z,29.40
2023-05-09T03:07:42.933Z,34.78
2023-05-09T03:13:05.004Z,29.73
2023-05-09T03:18:26.798Z,29.15
2023-05-09T03:23:48.549Z,29.30
2023-05-09T03:29:10.302Z,28.85
2023-05-09T03:34:32.038Z,27.17
2023-05-09T03:39:53.855Z,30.75
2023-05-09T03:45:15.674Z,29.63
2023-05-09T03:50:37.647Z,32.13
2023-05-09T03:55:59.354Z,32.00
2023-05-09T04:01:21.111Z,32.63
2023-05-09T04:06:42.885Z,31.70
2023-05-09T04:12:04.812Z,35.78
2023-05-09T04:17:26.758Z,28.90
2023-05-09T04:22:48.569Z,27.88
2023-05-09T04:28:10.407Z,27.65
2023-05-09T04:33:32.240Z,31.75
2023-05-09T04:38:53.973Z,31.95
2023-05-09T04:44:17.065Z,28.30
2023-05-09T04:49:38.908Z,33.08
2023-05-09T04:55:01.029Z,30.38
2023-05-09T05:00:22.861Z,32.28
2023-05-09T05:05:45.004Z,34.25
2023-05-09T05:11:06.966Z,31.95
2023-05-09T05:16:28.797Z,30.92
2023-05-09T05:21:50.586Z,31.60
2023-05-09T05:27:12.463Z,32.25
2023-05-09T05:32:34.303Z,29.17
2023-05-09T05:37:56.138Z,30.50
2023-05-09T05:43:17.932Z,27.77
2023-05-09T05:48:39.646Z,28.70
2023-05-09T05:54:01.346Z,33.03
2023-05-09T05:59:23.059Z,28.80
2023-05-09T06:04:45.071Z,31.65
2023-05-09T06:10:08.087Z,27.45
2023-05-09T06:15:29.830Z,28.73
2023-05-09T06:20:51.594Z,29.25
2023-05-09T06:26:14.509Z,36.97
2023-05-09T06:31:38.834Z,30.13
2023-05-09T06:37:00.954Z,29.05
2023-05-09T06:42:22.706Z,26.83
2023-05-09T06:47:44.498Z,28.98
2023-05-09T06:53:06.238Z,29.67
2023-05-09T06:58:28.516Z,28.23
2023-05-09T07:03:50.307Z,29.17
2023-05-09T07:09:14.890Z,27.27
2023-05-09T07:14:36.674Z,28.10
2023-05-09T07:19:58.399Z,28.23
2023-05-09T07:25:20.447Z,26.77
2023-05-09T07:30:43.687Z,26.88
2023-05-09T07:36:05.652Z,23.77
2023-05-09T07:41:27.363Z,25.30
2023-05-09T07:46:49.107Z,21.80
2023-05-09T07:52:10.973Z,23.77
2023-05-09T07:57:32.912Z,23.58
2023-05-09T08:02:54.964Z,21.38
2023-05-09T08:08:16.828Z,25.60
2023-05-09T08:13:38.581Z,20.73
2023-05-09T08:19:00.296Z,26.00
2023-05-09T08:24:22.075Z,20.52
2023-05-09T08:29:43.883Z,18.55
2023-05-09T08:35:06.672Z,19.48
2023-05-09T08:40:28.399Z,19.45
2023-05-09T08:45:58.020Z,20.55
2023-05-09T08:51:21.357Z,20.42
2023-05-09T08:56:43.185Z,19.17
2023-05-09T09:02:09.722Z,21.05
2023-05-09T09:07:34.560Z,17.92
2023-05-09T09:12:58.976Z,22.15
2023-05-09T09:18:23.828Z,17.88
2023-05-09T09:23:47.576Z,19.15
2023-05-09T09:29:09.677Z,19.00
2023-05-09T09:34:31.414Z,17.10
2023-05-09T09:39:57.241Z,16.20
2023-05-09T09:45:20.414Z,15.80
2023-05-09T09:50:42.441Z,15.18
2023-05-09T09:56:04.458Z,16.23
2023-05-09T10:01:26.231Z,13.63
2023-05-09T10:07:03.657Z,14.05
2023-05-09T10:12:25.660Z,13.45
2023-05-09T10:17:50.496Z,13.50
2023-05-09T10:23:15.131Z,13.65
2023-05-09T10:28:40.303Z,13.68
2023-05-09T10:34:09.835Z,13.00
2023-05-09T10:39:32.231Z,12.30
2023-05-09T10:44:54.082Z,12.30
2023-05-09T10:50:17.139Z,13.68
2023-05-09T10:55:49.631Z,14.88
2023-05-09T11:01:11.384Z,11.63
2023-05-09T11:06:46.353Z,17.10
2023-05-09T11:12:13.559Z,13.45
2023-05-09T11:17:38.654Z,16.42
2023-05-09T11:23:03.680Z,14.05
2023-05-09T11:28:30.428Z,12.18
2023-05-09T11:33:58.134Z,8.60
2023-05-09T11:39:25.034Z,8.95
2023-05-09T11:44:48.636Z,6.30
2023-05-09T11:50:13.243Z,6.20
2023-05-09T11:55:37.998Z,7.70
2023-05-09T12:01:00.474Z,5.43
2023-05-09T12:06:22.767Z,4.13
2023-05-09T12:11:49.963Z,4.35
2023-05-09T12:17:12.338Z,4.53
2023-05-09T12:22:34.982Z,5.18
2023-05-09T12:27:57.254Z,3.85
2023-05-09T12:33:20.012Z,4.93
2023-05-09T12:38:52.769Z,4.50
2023-05-09T12:44:24.809Z,4.13
2023-05-09T12:49:50.686Z,5.25
2023-05-09T12:55:14.100Z,3.97
2023-05-09T13:00:46.282Z,3.33
2023-05-09T13:06:14.764Z,4.43
2023-05-09T13:11:37.837Z,4.43
2023-05-09T13:16:59.597Z,2.88
2023-05-09T13:22:21.407Z,3.97
2023-05-09T13:27:43.157Z,2.28
2023-05-09T13:33:16.735Z,2.92
2023-05-09T13:38:46.784Z,2.35
2023-05-09T13:44:08.555Z,3.88
2023-05-09T13:49:30.287Z,2.35
2023-05-09T13:54:52.192Z,3.83
2023-05-09T14:00:15.838Z,2.95
2023-05-09T14:05:37.790Z,3.25
2023-05-09T14:10:59.534Z,2.80
2023-05-09T14:16:21.917Z,2.47
2023-05-09T14:21:44.767Z,3.28
2023-05-09T14:27:06.485Z,3.58
2023-05-09T14:32:28.209Z,2.53
2023-05-09T14:37:49.917Z,5.50
2023-05-09T14:43:12.629Z,1.13
2023-05-09T14:48:34.370Z,1.50
2023-05-09T14:53:56.104Z,1.25
2023-05-09T14:59:18.034Z,1.38
2023-05-09T15:04:41.286Z,2.45
2023-05-09T15:10:03.429Z,2.25
2023-05-09T15:15:25.757Z,2.58
2023-05-09T15:20:47.536Z,1.23
2023-05-09T15:26:12.134Z,1.50
2023-05-09T15:31:36.266Z,1.42
2023-05-09T15:36:58.885Z,1.50
2023-05-09T15:42:20.737Z,1.73
2023-05-09T15:47:42.670Z,3.25
2023-05-09T15:53:05.357Z,1.73
2023-05-09T15:58:27.262Z,8.85
2023-05-09T16:03:49.262Z,5.70
2023-05-09T16:09:11.573Z,2.97
2023-05-09T16:14:33.477Z,4.32
2023-05-09T16:19:55.626Z,4.60
2023-05-09T16:25:17.507Z,4.47
2023-05-09T16:30:39.252Z,5.88
2023-05-09T16:36:02.060Z,4.68
2023-05-09T16:41:23.832Z,7.05
2023-05-09T16:46:47.115Z,8.27
2023-05-09T16:52:08.971Z,3.50
2023-05-09T16:57:30.776Z,8.23
2023-05-09T17:02:52.649Z,3.33
2023-05-09T17:08:14.677Z,3.22
2023-05-09T17:13:36.477Z,5.13
2023-05-09T17:18:58.271Z,7.28
2023-05-09T17:24:21.429Z,7.55
2023-05-09T17:29:43.237Z,6.78
2023-05-09T17:35:05.969Z,4.50
2023-05-09T17:40:27.787Z,4.15
2023-05-09T17:45:51.744Z,4.78
2023-05-09T17:51:13.584Z,2.40
2023-05-09T17:56:35.548Z,1.58
2023-05-09T18:01:57.385Z,4.70
2023-05-09T18:07:19.663Z,4.97
2023-05-09T18:12:41.712Z,2.75
2023-05-09T18:18:05.948Z,3.17
2023-05-09T18:23:27.946Z,2.15
2023-05-09T18:28:49.897Z,1.65
2023-05-09T18:34:11.653Z,2.75
2023-05-09T18:39:33.490Z,3.05
2023-05-09T18:44:55.897Z,1.88
2023-05-09T18:50:18.815Z,3.75
2023-05-09T18:55:40.853Z,3.50
2023-05-09T19:01:02.822Z,3.65
2023-05-09T19:06:26.145Z,4.28
2023-05-09T19:11:47.854Z,4.68
2023-05-09T19:17:10.835Z,2.45
2023-05-09T19:22:32.904Z,6.68
2023-05-09T19:27:54.734Z,6.20
2023-05-09T19:33:16.642Z,3.60
2023-05-09T19:38:38.471Z,2.55
2023-05-09T19:44:00.254Z,3.67
2023-05-09T19:49:21.975Z,2.67
2023-05-09T19:54:43.935Z,5.63
2023-05-09T20:00:07.302Z,5.10
2023-05-09T20:05:29.158Z,2.00
2023-05-09T20:10:51.324Z,5.60
2023-05-09T20:16:13.435Z,1.90
2023-05-09T20:21:35.390Z,4.30
2023-05-09T20:26:57.297Z,4.57
2023-05-09T20:32:19.103Z,2.55
2023-05-09T20:37:40.932Z,1.70
2023-05-09T20:43:02.838Z,5.93
2023-05-09T20:48:24.656Z,2.97
2023-05-09T20:53:46.384Z,1.77
2023-05-09T20:59:08.694Z,3.22
2023-05-09T21:04:30.536Z,2.38
2023-05-09T21:09:54.033Z,3.50
2023-05-09T21:15:15.815Z,3.78
2023-05-09T21:20:38.366Z,1.35
2023-05-09T21:26:00.430Z,4.00
2023-05-09T21:31:22.164Z,1.33
2023-05-09T21:36:43.919Z,1.50
2023-05-09T21:42:05.791Z,2.80
2023-05-09T21:47:28.563Z,1.27
2023-05-09T21:52:50.456Z,4.85
2023-05-09T21:58:12.193Z,3.00
2023-05-09T22:03:34.159Z,5.18
2023-05-09T22:08:56.015Z,5.90
2023-05-09T22:14:18.110Z,3.13
2023-05-09T22:19:40.549Z,1.40
2023-05-09T22:25:04.535Z,7.05
2023-05-09T22:30:26.419Z,1.85
2023-05-09T22:35:48.138Z,4.15
2023-05-09T22:41:09.980Z,3.90
2023-05-09T22:46:31.771Z,2.10
2023-05-09T22:51:53.569Z,2.00
2023-05-09T22:57:17.797Z,2.70
2023-05-09T23:02:39.681Z,2.85
2023-05-09T23:08:01.593Z,2.53
2023-05-09T23:13:23.554Z,2.85
2023-05-09T23:18:45.396Z,2.35
2023-05-09T23:24:07.336Z,6.28
2023-05-09T23:29:29.065Z,2.53
2023-05-09T23:34:50.799Z,1.30
2023-05-09T23:40:13.106Z,2.55
2023-05-09T23:45:34.863Z,2.30
2023-05-09T23:50:56.590Z,4.15
2023-05-09T23:56:18.385Z,1.15
